createdAt,value
2019-01-06T00:01:04.307Z,18.78
2019-01-06T00:02:13.404Z,18.78
2019-01-06T00:03:22.500Z,18.75
2019-01-06T00:04:31.873Z,18.76
2019-01-06T00:05:41.063Z,18.8
2019-01-06T00:06:49.874Z,18.78
2019-01-06T00:07:58.678Z,18.75
2019-01-06T00:09:07.577Z,18.82
2019-01-06T00:10:16.387Z,18.69
2019-01-06T00:11:25.357Z,18.8
2019-01-06T00:12:34.454Z,18.73
2019-01-06T00:13:43.542Z,18.75
2019-01-06T00:14:52.365Z,18.76
2019-01-06T00:16:01.244Z,18.73
2019-01-06T00:17:10.415Z,18.75
2019-01-06T00:18:20.105Z,18.73
2019-01-06T00:19:29.431Z,18.78
2019-01-06T00:20:38.260Z,18.75
2019-01-06T00:21:47.318Z,18.76
2019-01-06T00:22:56.233Z,18.78
2019-01-06T00:24:05.138Z,18.78
2019-01-06T00:25:14.491Z,18.76
2019-01-06T00:26:23.315Z,18.67
2019-01-06T00:27:32.672Z,18.76
2019-01-06T00:28:41.844Z,18.76
2019-01-06T00:29:50.668Z,18.75
2019-01-06T00:30:59.495Z,18.69
2019-01-06T00:32:08.864Z,18.78
2019-01-06T00:33:17.694Z,18.73
2019-01-06T00:34:26.910Z,18.81
2019-01-06T00:35:36.012Z,18.78
2019-01-06T00:36:45.122Z,18.78
2019-01-06T00:37:54.492Z,18.76
2019-01-06T00:39:03.336Z,18.76
2019-01-06T00:40:12.188Z,18.7
2019-01-06T00:41:21.286Z,18.69
2019-01-06T00:42:30.120Z,18.78
2019-01-06T00:43:38.921Z,18.66
2019-01-06T00:44:48.012Z,18.73
2019-01-06T00:45:56.961Z,18.63
2019-01-06T00:47:05.792Z,18.65
2019-01-06T00:48:14.892Z,18.67
2019-01-06T00:49:24.224Z,18.67
2019-01-06T00:50:33.081Z,18.72
2019-01-06T00:51:42.253Z,18.66
2019-01-06T00:52:51.353Z,18.65
2019-01-06T00:54:00.177Z,18.65
2019-01-06T00:55:09.007Z,18.69
2019-01-06T00:56:17.815Z,18.72
2019-01-06T00:57:26.953Z,18.72
2019-01-06T00:58:36.316Z,18.66
2019-01-06T00:59:45.428Z,18.67
2019-01-06T01:00:54.495Z,18.57
2019-01-06T01:02:03.331Z,18.65
2019-01-06T01:03:12.508Z,18.69
2019-01-06T01:04:21.585Z,18.69
2019-01-06T01:05:30.696Z,18.67
2019-01-06T01:06:40.344Z,18.62
2019-01-06T01:07:49.492Z,18.67
2019-01-06T01:08:58.342Z,18.66
2019-01-06T01:10:07.164Z,18.69
2019-01-06T01:11:16.005Z,18.66
2019-01-06T01:12:25.113Z,18.66
2019-01-06T01:13:33.928Z,18.72
2019-01-06T01:14:43.135Z,18.69
2019-01-06T01:15:51.966Z,18.58
2019-01-06T01:17:01.068Z,18.6
2019-01-06T01:18:09.884Z,18.62
2019-01-06T01:19:18.973Z,18.6
2019-01-06T01:20:27.914Z,18.6
2019-01-06T01:21:36.735Z,18.58
2019-01-06T01:22:45.823Z,18.62
2019-01-06T01:23:54.903Z,18.62
2019-01-06T01:25:03.711Z,18.73
2019-01-06T01:26:12.860Z,18.65
2019-01-06T01:27:21.970Z,18.7
2019-01-06T01:28:30.808Z,18.67
2019-01-06T01:29:39.693Z,18.57
2019-01-06T01:30:48.522Z,18.62
2019-01-06T01:31:57.694Z,18.6
2019-01-06T01:33:06.520Z,18.57
2019-01-06T01:34:15.327Z,18.58
2019-01-06T01:35:24.651Z,18.65
2019-01-06T01:36:33.498Z,18.6
2019-01-06T01:37:43.215Z,18.63
2019-01-06T01:38:52.041Z,18.54
2019-01-06T01:40:00.887Z,18.62
2019-01-06T01:41:09.976Z,18.65
2019-01-06T01:42:19.084Z,18.63
2019-01-06T01:43:28.791Z,18.63
2019-01-06T01:44:38.133Z,18.63
2019-01-06T01:45:46.992Z,18.58
2019-01-06T01:46:55.829Z,18.57
2019-01-06T01:48:04.645Z,18.58
2019-01-06T01:49:13.814Z,18.57
2019-01-06T01:50:22.875Z,18.6
2019-01-06T01:51:31.950Z,18.54
2019-01-06T01:52:40.773Z,18.55
2019-01-06T01:53:49.849Z,18.55
2019-01-06T01:54:58.762Z,18.52
2019-01-06T01:56:07.577Z,18.58
2019-01-06T01:57:16.403Z,18.55
2019-01-06T01:58:25.251Z,18.58
2019-01-06T01:59:34.354Z,18.51
2019-01-06T02:00:43.546Z,18.54
2019-01-06T02:01:52.360Z,18.54
2019-01-06T02:03:01.721Z,18.55
2019-01-06T02:04:11.086Z,18.5
2019-01-06T02:05:20.168Z,18.58
2019-01-06T02:06:29.033Z,18.52
2019-01-06T02:07:37.840Z,18.55
2019-01-06T02:08:46.651Z,18.58
2019-01-06T02:09:55.534Z,18.54
2019-01-06T02:11:04.376Z,18.54
2019-01-06T02:12:13.773Z,18.58
2019-01-06T02:13:22.857Z,18.47
2019-01-06T02:14:31.963Z,18.5
2019-01-06T02:15:40.760Z,18.52
2019-01-06T02:16:49.900Z,18.52
2019-01-06T02:17:59.101Z,18.52
2019-01-06T02:19:08.719Z,18.55
2019-01-06T02:20:17.536Z,18.5
2019-01-06T02:21:26.909Z,18.51
2019-01-06T02:22:36.284Z,18.5
2019-01-06T02:23:45.186Z,18.41
2019-01-06T02:24:54.005Z,18.55
2019-01-06T02:26:02.836Z,18.48
2019-01-06T02:27:11.675Z,18.57
2019-01-06T02:28:20.515Z,18.54
2019-01-06T02:29:29.434Z,18.48
2019-01-06T02:30:38.797Z,18.5
2019-01-06T02:31:47.895Z,18.55
2019-01-06T02:32:56.731Z,18.47
2019-01-06T02:34:06.070Z,18.5
2019-01-06T02:35:15.261Z,18.58
2019-01-06T02:36:24.618Z,18.42
2019-01-06T02:37:33.990Z,18.48
2019-01-06T02:38:43.110Z,18.44
2019-01-06T02:39:52.189Z,18.54
2019-01-06T02:41:01.118Z,18.5
2019-01-06T02:42:10.494Z,18.52
2019-01-06T02:43:19.850Z,18.51
2019-01-06T02:44:28.693Z,18.48
2019-01-06T02:45:37.795Z,18.51
2019-01-06T02:46:47.048Z,18.54
2019-01-06T02:47:55.875Z,18.51
2019-01-06T02:49:04.706Z,18.41
2019-01-06T02:50:13.546Z,18.52
2019-01-06T02:51:22.903Z,18.5
2019-01-06T02:52:31.807Z,18.52
2019-01-06T02:53:40.634Z,18.48
2019-01-06T02:54:50.003Z,18.51
2019-01-06T02:55:59.650Z,18.44
2019-01-06T02:57:08.751Z,18.52
2019-01-06T02:58:18.440Z,18.51
2019-01-06T02:59:27.528Z,18.51
2019-01-06T03:00:36.973Z,18.45
2019-01-06T03:01:46.591Z,18.47
2019-01-06T03:02:56.224Z,18.52
2019-01-06T03:04:05.336Z,18.52
2019-01-06T03:05:14.432Z,18.44
2019-01-06T03:06:23.758Z,18.52
2019-01-06T03:07:32.871Z,18.5
2019-01-06T03:08:41.993Z,18.42
2019-01-06T03:09:51.168Z,18.5
2019-01-06T03:11:00.258Z,18.5
2019-01-06T03:12:09.383Z,18.47
2019-01-06T03:13:19.001Z,18.44
2019-01-06T03:14:28.080Z,18.42
2019-01-06T03:15:37.202Z,18.5
2019-01-06T03:16:46.275Z,18.5
2019-01-06T03:17:55.355Z,18.41
2019-01-06T03:19:04.455Z,18.5
2019-01-06T03:20:13.285Z,18.45
2019-01-06T03:21:22.480Z,18.47
2019-01-06T03:22:31.558Z,18.48
2019-01-06T03:23:40.459Z,18.48
2019-01-06T03:24:49.298Z,18.48
2019-01-06T03:25:58.392Z,18.44
2019-01-06T03:27:07.606Z,18.52
2019-01-06T03:28:16.977Z,18.45
2019-01-06T03:29:25.821Z,18.37
2019-01-06T03:30:34.658Z,18.44
2019-01-06T03:31:44.065Z,18.45
2019-01-06T03:32:53.531Z,18.5
2019-01-06T03:34:02.360Z,18.47
2019-01-06T03:35:11.187Z,18.48
2019-01-06T03:36:20.605Z,18.52
2019-01-06T03:37:29.431Z,18.42
2019-01-06T03:38:38.651Z,18.45
2019-01-06T03:39:48.010Z,18.42
2019-01-06T03:40:57.349Z,18.5
2019-01-06T03:42:06.416Z,18.45
2019-01-06T03:43:15.235Z,18.44
2019-01-06T03:44:24.722Z,18.41
2019-01-06T03:45:33.641Z,18.45
2019-01-06T03:46:42.451Z,18.42
2019-01-06T03:47:51.560Z,18.42
2019-01-06T03:49:00.405Z,18.45
2019-01-06T03:50:09.596Z,18.39
2019-01-06T03:51:18.423Z,18.37
2019-01-06T03:52:27.502Z,18.41
2019-01-06T03:53:36.622Z,18.45
2019-01-06T03:54:46.274Z,18.41
2019-01-06T03:55:55.660Z,18.42
2019-01-06T03:57:04.754Z,18.39
2019-01-06T03:58:13.585Z,18.35
2019-01-06T03:59:22.428Z,18.36
2019-01-06T04:00:31.519Z,18.42
2019-01-06T04:01:40.682Z,18.37
2019-01-06T04:02:50.311Z,18.36
2019-01-06T04:03:59.699Z,18.36
2019-01-06T04:05:08.792Z,18.39
2019-01-06T04:06:17.614Z,18.33
2019-01-06T04:07:26.789Z,18.36
2019-01-06T04:08:35.633Z,18.36
2019-01-06T04:09:44.750Z,18.36
2019-01-06T04:10:54.109Z,18.42
2019-01-06T04:12:03.228Z,18.39
2019-01-06T04:13:12.677Z,18.33
2019-01-06T04:14:22.033Z,18.33
2019-01-06T04:15:30.889Z,18.35
2019-01-06T04:16:39.991Z,18.33
2019-01-06T04:17:49.348Z,18.41
2019-01-06T04:18:58.551Z,18.35
2019-01-06T04:20:07.397Z,18.35
2019-01-06T04:21:16.531Z,18.33
2019-01-06T04:22:25.341Z,18.41
2019-01-06T04:23:34.746Z,18.36
2019-01-06T04:24:43.610Z,18.29
2019-01-06T04:25:53.308Z,18.37
2019-01-06T04:27:02.419Z,18.39
2019-01-06T04:28:11.508Z,18.37
2019-01-06T04:29:20.613Z,18.37
2019-01-06T04:30:29.764Z,18.36
2019-01-06T04:31:38.838Z,18.35
2019-01-06T04:32:47.653Z,18.36
2019-01-06T04:33:56.747Z,18.41
2019-01-06T04:35:05.846Z,18.3
2019-01-06T04:36:15.027Z,18.37
2019-01-06T04:37:24.347Z,18.45
2019-01-06T04:38:33.719Z,18.42
2019-01-06T04:39:42.539Z,18.32
2019-01-06T04:40:51.367Z,18.45
2019-01-06T04:42:00.451Z,18.35
2019-01-06T04:43:09.564Z,18.44
2019-01-06T04:44:18.655Z,18.35
2019-01-06T04:45:27.561Z,18.33
2019-01-06T04:46:36.655Z,18.32
2019-01-06T04:47:45.796Z,18.36
2019-01-06T04:48:54.629Z,18.33
2019-01-06T04:50:04.290Z,18.32
2019-01-06T04:51:13.674Z,18.37
2019-01-06T04:52:23.030Z,18.35
2019-01-06T04:53:32.478Z,18.29
2019-01-06T04:54:41.831Z,18.3
2019-01-06T04:55:50.920Z,18.29
2019-01-06T04:57:01.012Z,18.32
2019-01-06T04:58:09.832Z,18.26
2019-01-06T04:59:18.704Z,18.33
2019-01-06T05:00:27.780Z,18.29
2019-01-06T05:01:36.939Z,18.29
2019-01-06T05:02:46.320Z,18.29
2019-01-06T05:03:55.405Z,18.32
2019-01-06T05:05:04.334Z,18.26
2019-01-06T05:06:13.701Z,18.35
2019-01-06T05:07:22.775Z,18.29
2019-01-06T05:08:31.624Z,18.32
2019-01-06T05:09:40.703Z,18.29
2019-01-06T05:10:50.135Z,18.35
2019-01-06T05:11:59.487Z,18.33
2019-01-06T05:13:08.583Z,18.36
2019-01-06T05:14:17.404Z,18.26
2019-01-06T05:15:26.490Z,18.33
2019-01-06T05:16:35.625Z,18.27
2019-01-06T05:17:44.690Z,18.29
2019-01-06T05:18:53.786Z,18.21
2019-01-06T05:20:02.891Z,18.29
2019-01-06T05:21:11.715Z,18.35
2019-01-06T05:22:21.147Z,18.3
2019-01-06T05:23:29.968Z,18.33
2019-01-06T05:24:38.810Z,18.32
2019-01-06T05:25:47.623Z,18.32
2019-01-06T05:26:56.472Z,18.23
2019-01-06T05:28:05.334Z,18.33
2019-01-06T05:29:14.453Z,18.26
2019-01-06T05:30:23.544Z,18.2
2019-01-06T05:31:32.385Z,18.27
2019-01-06T05:32:41.259Z,18.35
2019-01-06T05:33:50.656Z,18.33
2019-01-06T05:34:59.485Z,18.18
2019-01-06T05:36:08.326Z,18.25
2019-01-06T05:37:17.465Z,18.23
2019-01-06T05:38:26.816Z,18.26
2019-01-06T05:39:35.711Z,18.17
2019-01-06T05:40:44.552Z,18.18
2019-01-06T05:41:53.636Z,18.23
2019-01-06T05:43:03.287Z,18.17
2019-01-06T05:44:12.372Z,18.23
2019-01-06T05:45:21.586Z,18.26
2019-01-06T05:46:30.416Z,18.23
2019-01-06T05:47:39.513Z,18.18
2019-01-06T05:48:49.098Z,18.25
2019-01-06T05:49:58.189Z,18.27
2019-01-06T05:51:07.057Z,18.23
2019-01-06T05:52:15.856Z,18.25
2019-01-06T05:53:24.953Z,18.29
2019-01-06T05:54:34.076Z,18.25
2019-01-06T05:55:43.765Z,18.23
2019-01-06T05:56:52.622Z,18.2
2019-01-06T05:58:01.953Z,18.23
2019-01-06T05:59:10.788Z,18.17
2019-01-06T06:00:19.609Z,18.23
2019-01-06T06:01:28.411Z,18.25
2019-01-06T06:02:37.819Z,18.23
2019-01-06T06:03:47.166Z,18.23
2019-01-06T06:04:56.281Z,18.25
2019-01-06T06:06:05.400Z,18.2
2019-01-06T06:07:16.121Z,18.23
2019-01-06T06:08:25.233Z,18.2
2019-01-06T06:09:34.049Z,18.26
2019-01-06T06:10:43.131Z,18.26
2019-01-06T06:11:52.464Z,18.27
2019-01-06T06:13:01.818Z,18.2
2019-01-06T06:14:10.976Z,18.27
2019-01-06T06:15:20.313Z,18.2
2019-01-06T06:16:29.139Z,18.27
2019-01-06T06:17:38.221Z,18.2
2019-01-06T06:18:47.290Z,18.17
2019-01-06T06:19:56.148Z,18.26
2019-01-06T06:21:05.312Z,18.29
2019-01-06T06:22:14.417Z,18.25
2019-01-06T06:23:23.515Z,18.2
2019-01-06T06:24:32.343Z,18.18
2019-01-06T06:25:41.450Z,18.18
2019-01-06T06:26:50.271Z,18.17
2019-01-06T06:27:59.361Z,18.26
2019-01-06T06:29:08.190Z,18.23
2019-01-06T06:30:17.281Z,18.17
2019-01-06T06:31:26.501Z,18.27
2019-01-06T06:32:35.328Z,18.23
2019-01-06T06:33:44.155Z,18.14
2019-01-06T06:34:53.225Z,18.2
2019-01-06T06:36:02.351Z,18.17
2019-01-06T06:37:11.800Z,18.18
2019-01-06T06:38:20.888Z,18.2
2019-01-06T06:39:29.725Z,18.21
2019-01-06T06:40:38.815Z,18.12
2019-01-06T06:41:47.893Z,18.2
2019-01-06T06:42:56.982Z,18.18
2019-01-06T06:44:06.335Z,18.18
2019-01-06T06:45:15.137Z,18.21
2019-01-06T06:46:23.959Z,18.12
2019-01-06T06:47:33.018Z,18.15
2019-01-06T06:48:42.263Z,18.15
2019-01-06T06:49:51.096Z,18.18
2019-01-06T06:51:00.442Z,18.2
2019-01-06T06:52:09.776Z,18.18
2019-01-06T06:53:18.623Z,18.18
2019-01-06T06:54:27.806Z,18.17
2019-01-06T06:55:36.967Z,18.15
2019-01-06T06:56:45.773Z,18.15
2019-01-06T06:57:54.606Z,18.2
2019-01-06T06:59:03.677Z,18.11
2019-01-06T07:00:13.085Z,18.14
2019-01-06T07:01:22.157Z,18.14
2019-01-06T07:02:31.276Z,18.2
2019-01-06T07:03:40.098Z,18.25
2019-01-06T07:04:49.478Z,18.14
2019-01-06T07:05:58.639Z,18.17
2019-01-06T07:07:08.007Z,18.15
2019-01-06T07:08:17.350Z,18.18
2019-01-06T07:09:26.488Z,18.14
2019-01-06T07:10:35.872Z,18.12
2019-01-06T07:11:45.021Z,18.14
2019-01-06T07:12:53.845Z,18.21
2019-01-06T07:14:02.939Z,18.15
2019-01-06T07:15:12.045Z,18.14
2019-01-06T07:16:20.881Z,18.14
2019-01-06T07:17:30.073Z,18.12
2019-01-06T07:18:38.917Z,18.11
2019-01-06T07:19:48.288Z,18.17
2019-01-06T07:20:57.117Z,18.2
2019-01-06T07:22:06.297Z,18.2
2019-01-06T07:23:15.785Z,18.12
2019-01-06T07:24:24.880Z,18.15
2019-01-06T07:25:33.958Z,18.12
2019-01-06T07:26:43.337Z,18.2
2019-01-06T07:27:52.419Z,18.15
2019-01-06T07:29:01.536Z,18.17
2019-01-06T07:30:10.616Z,18.15
2019-01-06T07:31:19.442Z,18.12
2019-01-06T07:32:28.824Z,18.15
2019-01-06T07:33:37.627Z,18.12
2019-01-06T07:34:46.759Z,18.14
2019-01-06T07:35:55.858Z,18.18
2019-01-06T07:37:04.673Z,18.12
2019-01-06T07:38:13.471Z,18.15
2019-01-06T07:39:22.533Z,18.17
2019-01-06T07:40:31.440Z,18.17
2019-01-06T07:41:40.246Z,18.2
2019-01-06T07:42:49.352Z,18.14
2019-01-06T07:43:58.177Z,18.14
2019-01-06T07:45:07.253Z,18.17
2019-01-06T07:46:16.435Z,18.18
2019-01-06T07:47:25.264Z,18.12
2019-01-06T07:48:34.343Z,18.14
2019-01-06T07:49:43.178Z,18.15
2019-01-06T07:50:51.991Z,18.18
2019-01-06T07:52:00.875Z,18.17
2019-01-06T07:53:09.986Z,18.15
2019-01-06T07:54:19.337Z,18.2
2019-01-06T07:55:28.428Z,18.15
2019-01-06T07:56:37.242Z,18.21
2019-01-06T07:57:46.591Z,18.17
2019-01-06T07:58:55.459Z,18.17
2019-01-06T08:00:04.295Z,18.2
2019-01-06T08:01:19.827Z,18.21
2019-01-06T08:02:28.907Z,18.18
2019-01-06T08:03:38.076Z,18.14
2019-01-06T08:04:47.708Z,18.17
2019-01-06T08:05:56.802Z,18.15
2019-01-06T08:07:05.627Z,18.25
2019-01-06T08:08:14.694Z,18.15
2019-01-06T08:09:23.501Z,18.17
2019-01-06T08:10:32.313Z,18.23
2019-01-06T08:11:41.941Z,18.21
2019-01-06T08:12:50.783Z,18.25
2019-01-06T08:13:59.866Z,18.21
2019-01-06T08:15:08.801Z,18.25
2019-01-06T08:16:17.894Z,18.2
2019-01-06T08:17:26.998Z,18.21
2019-01-06T08:18:35.859Z,18.21
2019-01-06T08:19:44.988Z,18.21
2019-01-06T08:20:54.156Z,18.2
2019-01-06T08:22:03.015Z,18.21
2019-01-06T08:23:11.864Z,18.23
2019-01-06T08:24:20.942Z,18.17
2019-01-06T08:25:29.801Z,18.2
2019-01-06T08:26:38.656Z,18.23
2019-01-06T08:27:47.468Z,18.18
2019-01-06T08:28:56.326Z,18.26
2019-01-06T08:30:05.673Z,18.25
2019-01-06T08:31:15.019Z,18.23
2019-01-06T08:32:23.853Z,18.27
2019-01-06T08:33:33.185Z,18.23
2019-01-06T08:34:42.060Z,18.25
2019-01-06T08:35:51.160Z,18.2
2019-01-06T08:37:00.023Z,18.18
2019-01-06T08:38:08.906Z,18.26
2019-01-06T08:39:17.725Z,18.21
2019-01-06T08:40:26.547Z,18.2
2019-01-06T08:41:35.363Z,18.29
2019-01-06T08:42:44.450Z,18.21
2019-01-06T08:43:53.389Z,18.23
2019-01-06T08:45:02.461Z,18.26
2019-01-06T08:46:11.291Z,18.41
2019-01-06T08:47:20.366Z,18.33
2019-01-06T08:48:29.451Z,18.29
2019-01-06T08:49:38.927Z,18.33
2019-01-06T08:50:48.032Z,18.3
2019-01-06T08:51:57.385Z,18.32
2019-01-06T08:53:06.212Z,18.32
2019-01-06T08:54:15.318Z,18.33
2019-01-06T08:55:24.512Z,18.33
2019-01-06T08:56:34.732Z,18.36
2019-01-06T08:57:43.814Z,18.26
2019-01-06T08:58:52.635Z,18.29
2019-01-06T09:00:01.460Z,18.29
2019-01-06T09:01:10.344Z,18.33
2019-01-06T09:02:19.416Z,18.3
2019-01-06T09:03:28.762Z,18.39
2019-01-06T09:04:39.675Z,18.3
2019-01-06T09:05:48.498Z,18.41
2019-01-06T09:06:57.443Z,18.32
2019-01-06T09:08:06.527Z,18.39
2019-01-06T09:09:15.358Z,18.32
2019-01-06T09:10:24.263Z,18.32
2019-01-06T09:11:33.613Z,18.32
2019-01-06T09:12:47.724Z,18.32
2019-01-06T09:13:56.817Z,18.36
2019-01-06T09:15:05.640Z,18.32
2019-01-06T09:16:14.458Z,18.35
2019-01-06T09:17:23.535Z,18.41
2019-01-06T09:18:32.974Z,18.37
2019-01-06T09:19:49.924Z,18.39
2019-01-06T09:20:58.979Z,18.36
2019-01-06T09:22:07.817Z,18.37
2019-01-06T09:23:16.888Z,18.36
2019-01-06T09:24:25.701Z,18.36
2019-01-06T09:25:43.069Z,18.35
2019-01-06T09:26:52.154Z,18.32
2019-01-06T09:28:01.497Z,18.36
2019-01-06T09:29:10.308Z,18.42
2019-01-06T09:30:20.862Z,18.41
2019-01-06T09:31:29.779Z,18.36
2019-01-06T09:32:38.894Z,18.41
2019-01-06T09:33:47.985Z,18.33
2019-01-06T09:34:56.844Z,18.35
2019-01-06T09:36:06.470Z,18.45
2019-01-06T09:37:15.286Z,18.37
2019-01-06T09:38:24.909Z,18.42
2019-01-06T09:39:33.747Z,18.36
2019-01-06T09:40:42.551Z,18.33
2019-01-06T09:41:52.281Z,18.42
2019-01-06T09:43:01.118Z,18.32
2019-01-06T09:44:10.733Z,18.35
2019-01-06T09:45:19.885Z,18.41
2019-01-06T09:46:28.761Z,18.44
2019-01-06T09:47:37.827Z,18.33
2019-01-06T09:48:47.435Z,18.39
2019-01-06T09:49:56.251Z,18.44
2019-01-06T09:51:05.153Z,18.41
2019-01-06T09:52:13.966Z,18.48
2019-01-06T09:53:23.075Z,18.51
2019-01-06T09:54:32.160Z,18.5
2019-01-06T09:55:41.231Z,18.5
2019-01-06T09:56:50.360Z,18.48
2019-01-06T09:57:59.196Z,18.48
2019-01-06T09:59:08.547Z,18.51
2019-01-06T10:00:17.610Z,18.45
2019-01-06T10:01:26.709Z,18.42
2019-01-06T10:02:35.641Z,18.48
2019-01-06T10:03:44.456Z,18.6
2019-01-06T10:04:53.807Z,18.51
2019-01-06T10:06:02.629Z,18.48
2019-01-06T10:07:11.433Z,18.47
2019-01-06T10:08:20.511Z,18.51
2019-01-06T10:09:29.586Z,18.5
2019-01-06T10:10:38.688Z,18.45
2019-01-06T10:11:47.500Z,18.52
2019-01-06T10:12:56.340Z,18.45
2019-01-06T10:14:07.088Z,18.44
2019-01-06T10:15:16.158Z,18.48
2019-01-06T10:16:25.254Z,18.41
2019-01-06T10:17:34.355Z,18.36
2019-01-06T10:18:43.180Z,18.39
2019-01-06T10:19:52.081Z,18.45
2019-01-06T10:21:01.542Z,18.48
2019-01-06T10:22:10.647Z,18.41
2019-01-06T10:23:19.471Z,18.48
2019-01-06T10:24:28.842Z,18.51
2019-01-06T10:25:38.205Z,18.52
2019-01-06T10:26:47.542Z,18.51
2019-01-06T10:27:56.372Z,18.5
2019-01-06T10:29:05.230Z,18.41
2019-01-06T10:30:15.915Z,18.39
2019-01-06T10:31:24.798Z,18.39
2019-01-06T10:32:34.238Z,18.33
2019-01-06T10:33:43.074Z,18.37
2019-01-06T10:34:52.189Z,18.41
2019-01-06T10:36:01.271Z,18.41
2019-01-06T10:37:10.447Z,18.39
2019-01-06T10:38:19.530Z,18.42
2019-01-06T10:39:28.363Z,18.41
2019-01-06T10:40:37.180Z,18.44
2019-01-06T10:41:46.762Z,18.47
2019-01-06T10:42:55.958Z,18.47
2019-01-06T10:44:05.039Z,18.54
2019-01-06T10:45:14.129Z,18.52
2019-01-06T10:46:22.956Z,18.6
2019-01-06T10:47:32.051Z,18.63
2019-01-06T10:48:41.439Z,18.73
2019-01-06T10:49:50.301Z,18.75
2019-01-06T10:50:59.125Z,18.78
2019-01-06T10:52:08.207Z,18.7
2019-01-06T10:53:17.037Z,18.51
2019-01-06T10:54:26.216Z,18.42
2019-01-06T10:55:35.033Z,18.44
2019-01-06T10:56:44.384Z,18.41
2019-01-06T10:57:53.188Z,18.39
2019-01-06T10:59:02.018Z,18.36
2019-01-06T11:00:12.540Z,18.32
2019-01-06T11:01:21.921Z,18.23
2019-01-06T11:02:31.755Z,18.18
2019-01-06T11:03:40.851Z,18.33
2019-01-06T11:04:49.932Z,18.42
2019-01-06T11:05:59.384Z,18.45
2019-01-06T11:07:08.218Z,18.54
2019-01-06T11:08:18.045Z,18.57
2019-01-06T11:09:26.944Z,18.6
2019-01-06T11:10:35.785Z,18.6
2019-01-06T11:11:44.592Z,18.66
2019-01-06T11:12:53.694Z,18.65
2019-01-06T11:14:02.861Z,18.72
2019-01-06T11:15:11.978Z,18.72
2019-01-06T11:16:21.042Z,18.81
2019-01-06T11:17:29.873Z,18.7
2019-01-06T11:18:38.709Z,18.8
2019-01-06T11:19:47.514Z,18.8
2019-01-06T11:20:56.581Z,18.84
2019-01-06T11:22:05.673Z,18.8
2019-01-06T11:23:14.805Z,18.75
2019-01-06T11:24:23.969Z,18.82
2019-01-06T11:25:33.056Z,18.81
2019-01-06T11:26:42.395Z,18.84
2019-01-06T11:27:51.319Z,18.8
2019-01-06T11:29:00.547Z,18.81
2019-01-06T11:30:09.475Z,18.82
2019-01-06T11:31:18.411Z,18.78
2019-01-06T11:32:27.221Z,18.84
2019-01-06T11:33:36.847Z,18.87
2019-01-06T11:34:46.553Z,18.82
2019-01-06T11:35:55.707Z,18.85
2019-01-06T11:37:04.785Z,18.85
2019-01-06T11:38:13.597Z,18.81
2019-01-06T11:39:22.441Z,18.82
2019-01-06T11:40:31.560Z,18.82
2019-01-06T11:41:40.643Z,18.87
2019-01-06T11:42:49.470Z,18.76
2019-01-06T11:43:59.163Z,18.85
2019-01-06T11:45:07.976Z,18.78
2019-01-06T11:46:17.049Z,18.88
2019-01-06T11:47:26.129Z,18.84
2019-01-06T11:48:34.929Z,18.82
2019-01-06T11:49:43.809Z,18.75
2019-01-06T11:50:52.636Z,18.81
2019-01-06T11:52:02.170Z,18.81
2019-01-06T11:53:11.001Z,18.81
2019-01-06T11:54:19.808Z,18.84
2019-01-06T11:55:28.935Z,18.81
2019-01-06T11:56:38.020Z,18.8
2019-01-06T11:57:46.886Z,18.8
2019-01-06T11:58:55.700Z,18.81
2019-01-06T12:00:04.809Z,18.8
2019-01-06T12:01:13.872Z,18.81
2019-01-06T12:02:23.026Z,18.91
2019-01-06T12:03:32.138Z,18.81
2019-01-06T12:04:41.232Z,18.87
2019-01-06T12:05:50.318Z,18.87
2019-01-06T12:06:59.425Z,18.82
2019-01-06T12:08:10.150Z,18.85
2019-01-06T12:09:19.623Z,18.87
2019-01-06T12:10:28.699Z,18.85
2019-01-06T12:11:37.855Z,18.78
2019-01-06T12:12:46.984Z,18.78
2019-01-06T12:13:56.071Z,18.76
2019-01-06T12:15:05.428Z,18.87
2019-01-06T12:16:14.274Z,18.85
2019-01-06T12:17:23.105Z,18.91
2019-01-06T12:18:32.475Z,18.92
2019-01-06T12:19:42.070Z,18.9
2019-01-06T12:20:51.198Z,18.9
2019-01-06T12:22:01.364Z,18.88
2019-01-06T12:23:10.173Z,18.84
2019-01-06T12:24:19.275Z,18.84
2019-01-06T12:25:28.633Z,18.84
2019-01-06T12:26:37.450Z,18.95
2019-01-06T12:27:46.535Z,18.88
2019-01-06T12:28:55.413Z,18.88
2019-01-06T12:30:04.225Z,18.88
2019-01-06T12:31:13.568Z,18.78
2019-01-06T12:32:22.920Z,18.88
2019-01-06T12:33:32.006Z,18.91
2019-01-06T12:34:40.818Z,18.85
2019-01-06T12:35:49.913Z,18.78
2019-01-06T12:36:58.733Z,18.92
2019-01-06T12:38:07.843Z,18.95
2019-01-06T12:39:16.972Z,18.99
2019-01-06T12:40:26.070Z,18.95
2019-01-06T12:41:35.742Z,19.1
2019-01-06T12:42:45.086Z,19.04
2019-01-06T12:43:54.803Z,19.02
2019-01-06T12:45:03.628Z,18.92
2019-01-06T12:46:12.707Z,18.84
2019-01-06T12:47:21.517Z,18.87
2019-01-06T12:48:30.337Z,18.91
2019-01-06T12:49:39.542Z,19.04
2019-01-06T12:50:48.627Z,18.92
2019-01-06T12:51:57.753Z,19.07
2019-01-06T12:53:07.103Z,19
2019-01-06T12:54:15.929Z,19.07
2019-01-06T12:55:25.187Z,19
2019-01-06T12:56:34.570Z,19.08
2019-01-06T12:57:48.785Z,19.06
2019-01-06T12:58:57.890Z,19.02
2019-01-06T13:00:07.004Z,19.02
2019-01-06T13:01:15.879Z,19.13
2019-01-06T13:02:24.980Z,19.11
2019-01-06T13:03:34.074Z,19
2019-01-06T13:04:43.677Z,19.07
2019-01-06T13:05:52.515Z,19.02
2019-01-06T13:07:01.393Z,19.06
2019-01-06T13:08:10.219Z,19.06
2019-01-06T13:09:19.037Z,19.04
2019-01-06T13:10:27.858Z,19.06
2019-01-06T13:11:37.213Z,18.98
2019-01-06T13:12:46.315Z,19.07
2019-01-06T13:13:55.432Z,19.02
2019-01-06T13:15:04.502Z,19.02
2019-01-06T13:16:13.600Z,19.02
2019-01-06T13:17:22.420Z,19.07
2019-01-06T13:18:31.236Z,19
2019-01-06T13:19:40.300Z,19.13
2019-01-06T13:20:49.648Z,19.06
2019-01-06T13:21:59.006Z,19.02
2019-01-06T13:23:08.399Z,19.07
2019-01-06T13:24:17.588Z,18.99
2019-01-06T13:25:26.387Z,19.06
2019-01-06T13:26:35.500Z,19.02
2019-01-06T13:27:44.581Z,19.04
2019-01-06T13:28:53.670Z,19.11
2019-01-06T13:30:02.591Z,18.94
2019-01-06T13:31:11.673Z,18.78
2019-01-06T13:32:20.750Z,18.81
2019-01-06T13:33:29.833Z,18.76
2019-01-06T13:34:39.199Z,18.84
2019-01-06T13:35:48.124Z,18.94
2019-01-06T13:36:57.196Z,18.98
2019-01-06T13:38:06.317Z,18.99
2019-01-06T13:39:15.404Z,19.06
2019-01-06T13:40:24.210Z,19.06
2019-01-06T13:41:33.353Z,19.14
2019-01-06T13:42:42.695Z,19.1
2019-01-06T13:43:51.511Z,19.25
2019-01-06T13:45:00.325Z,19.25
2019-01-06T13:46:09.422Z,19.26
2019-01-06T13:47:18.830Z,19.31
2019-01-06T13:48:27.647Z,19.32
2019-01-06T13:49:36.467Z,19.21
2019-01-06T13:50:45.425Z,19.13
2019-01-06T13:51:54.236Z,19.25
2019-01-06T13:53:03.153Z,19.22
2019-01-06T13:54:11.978Z,19.25
2019-01-06T13:55:20.801Z,19.26
2019-01-06T13:56:29.632Z,19.25
2019-01-06T13:57:39.260Z,19.22
2019-01-06T13:58:48.511Z,19.25
2019-01-06T13:59:57.574Z,19.22
2019-01-06T14:01:06.645Z,19.25
2019-01-06T14:02:15.458Z,19.21
2019-01-06T14:03:24.291Z,19.28
2019-01-06T14:04:33.177Z,19.22
2019-01-06T14:05:41.992Z,19.25
2019-01-06T14:06:51.122Z,19.23
2019-01-06T14:08:00.187Z,19.21
2019-01-06T14:09:09.274Z,19.25
2019-01-06T14:10:18.186Z,19.26
2019-01-06T14:11:27.282Z,19.28
2019-01-06T14:12:36.622Z,19.16
2019-01-06T14:13:45.717Z,19.13
2019-01-06T14:14:54.535Z,19.13
2019-01-06T14:16:03.678Z,19.19
2019-01-06T14:17:12.766Z,19.18
2019-01-06T14:18:22.151Z,19.13
2019-01-06T14:19:31.047Z,19.22
2019-01-06T14:20:40.401Z,19.14
2019-01-06T14:21:49.327Z,19.26
2019-01-06T14:22:58.138Z,19.28
2019-01-06T14:24:07.236Z,19.29
2019-01-06T14:25:16.313Z,19.28
2019-01-06T14:26:25.390Z,19.21
2019-01-06T14:27:34.275Z,19.25
2019-01-06T14:28:43.361Z,19.26
2019-01-06T14:29:52.451Z,19.11
2019-01-06T14:31:01.546Z,19.16
2019-01-06T14:32:10.654Z,19.16
2019-01-06T14:33:19.794Z,19.18
2019-01-06T14:34:28.894Z,19.1
2019-01-06T14:35:37.985Z,19.16
2019-01-06T14:36:47.353Z,19.16
2019-01-06T14:37:56.698Z,19.16
2019-01-06T14:39:13.252Z,19.19
2019-01-06T14:40:22.151Z,19.22
2019-01-06T14:41:31.292Z,19.13
2019-01-06T14:42:40.122Z,19.13
2019-01-06T14:43:49.208Z,19.1
2019-01-06T14:44:58.331Z,19.1
2019-01-06T14:46:07.185Z,19.08
2019-01-06T14:47:16.261Z,19.11
2019-01-06T14:48:25.077Z,19.1
2019-01-06T14:49:33.896Z,19.16
2019-01-06T14:50:42.725Z,19.13
2019-01-06T14:51:52.059Z,19.13
2019-01-06T14:53:00.862Z,19.07
2019-01-06T14:54:09.693Z,19.08